sensor_id;sensor_type;location;lat;lon;timestamp;temperature;humidity
42019;DHT22;27703;51.980;5.848;2024-01-06T00:00:57;6.80;99.90
42019;DHT22;27703;51.980;5.848;2024-01-06T00:03:22;6.80;99.90
42019;DHT22;27703;51.980;5.848;2024-01-06T00:05:48;6.70;99.90
42019;DHT22;27703;51.980;5.848;2024-01-06T00:08:13;6.70;99.90
42019;DHT22;27703;51.980;5.848;2024-01-06T00:10:39;6.80;99.90
42019;DHT22;27703;51.980;5.848;2024-01-06T00:13:04;6.70;99.90
42019;DHT22;27703;51.980;5.848;2024-01-06T00:15:30;6.70;99.90
42019;DHT22;27703;51.980;5.848;2024-01-06T00:17:55;6.70;99.90
42019;DHT22;27703;51.980;5.848;2024-01-06T00:20:21;6.70;99.90
42019;DHT22;27703;51.980;5.848;2024-01-06T00:22:46;6.70;99.90
42019;DHT22;27703;51.980;5.848;2024-01-06T00:25:12;6.60;99.90
42019;DHT22;27703;51.980;5.848;2024-01-06T00:27:37;6.60;99.90
42019;DHT22;27703;51.980;5.848;2024-01-06T00:30:03;6.60;99.90
42019;DHT22;27703;51.980;5.848;2024-01-06T00:32:29;6.60;99.90
42019;DHT22;27703;51.980;5.848;2024-01-06T00:34:55;6.60;99.90
42019;DHT22;27703;51.980;5.848;2024-01-06T00:37:20;6.60;99.90
42019;DHT22;27703;51.980;5.848;2024-01-06T00:39:46;6.60;99.90
42019;DHT22;27703;51.980;5.848;2024-01-06T00:42:11;6.60;99.90
42019;DHT22;27703;51.980;5.848;2024-01-06T00:44:37;6.60;99.90
42019;DHT22;27703;51.980;5.848;2024-01-06T00:47:03;6.60;99.90
42019;DHT22;27703;51.980;5.848;2024-01-06T00:49:28;6.50;99.90
42019;DHT22;27703;51.980;5.848;2024-01-06T00:51:54;6.50;99.90
42019;DHT22;27703;51.980;5.848;2024-01-06T00:54:19;6.50;99.90
42019;DHT22;27703;51.980;5.848;2024-01-06T00:56:45;6.50;99.90
42019;DHT22;27703;51.980;5.848;2024-01-06T00:59:10;6.50;99.90
42019;DHT22;27703;51.980;5.848;2024-01-06T01:01:36;6.50;99.90
42019;DHT22;27703;51.980;5.848;2024-01-06T01:04:01;6.50;99.90
42019;DHT22;27703;51.980;5.848;2024-01-06T01:06:27;6.40;99.90
42019;DHT22;27703;51.980;5.848;2024-01-06T01:08:53;6.30;99.90
42019;DHT22;27703;51.980;5.848;2024-01-06T01:11:19;6.40;99.90
42019;DHT22;27703;51.980;5.848;2024-01-06T01:13:44;6.30;99.90
42019;DHT22;27703;51.980;5.848;2024-01-06T01:16:10;6.30;99.90
42019;DHT22;27703;51.980;5.848;2024-01-06T01:18:35;6.30;99.90
42019;DHT22;27703;51.980;5.848;2024-01-06T01:21:01;6.30;99.90
42019;DHT22;27703;51.980;5.848;2024-01-06T01:23:27;6.40;99.90
42019;DHT22;27703;51.980;5.848;2024-01-06T01:25:53;6.30;99.90
42019;DHT22;27703;51.980;5.848;2024-01-06T01:28:19;6.30;99.90
42019;DHT22;27703;51.980;5.848;2024-01-06T01:30:44;6.30;99.90
42019;DHT22;27703;51.980;5.848;2024-01-06T01:33:10;6.30;99.90
42019;DHT22;27703;51.980;5.848;2024-01-06T01:35:35;6.30;99.90
42019;DHT22;27703;51.980;5.848;2024-01-06T01:38:01;6.30;99.90
42019;DHT22;27703;51.980;5.848;2024-01-06T01:40:26;6.30;99.90
42019;DHT22;27703;51.980;5.848;2024-01-06T01:42:52;6.30;99.90
42019;DHT22;27703;51.980;5.848;2024-01-06T01:45:17;6.30;99.90
42019;DHT22;27703;51.980;5.848;2024-01-06T01:47:43;6.30;99.90
42019;DHT22;27703;51.980;5.848;2024-01-06T01:50:12;6.20;99.90
42019;DHT22;27703;51.980;5.848;2024-01-06T01:52:39;6.20;99.90
42019;DHT22;27703;51.980;5.848;2024-01-06T01:55:06;6.20;99.90
42019;DHT22;27703;51.980;5.848;2024-01-06T01:57:31;6.30;99.90
42019;DHT22;27703;51.980;5.848;2024-01-06T01:59:57;6.30;99.90
42019;DHT22;27703;51.980;5.848;2024-01-06T02:02:23;6.20;99.90
42019;DHT22;27703;51.980;5.848;2024-01-06T02:04:48;6.20;99.90
42019;DHT22;27703;51.980;5.848;2024-01-06T02:07:14;6.20;99.90
42019;DHT22;27703;51.980;5.848;2024-01-06T02:09:40;6.20;99.90
42019;DHT22;27703;51.980;5.848;2024-01-06T02:12:06;6.20;99.90
42019;DHT22;27703;51.980;5.848;2024-01-06T02:14:31;6.20;99.90
42019;DHT22;27703;51.980;5.848;2024-01-06T02:16:58;6.20;99.90
42019;DHT22;27703;51.980;5.848;2024-01-06T02:19:24;6.20;99.90
42019;DHT22;27703;51.980;5.848;2024-01-06T02:21:53;6.20;99.90
42019;DHT22;27703;51.980;5.848;2024-01-06T02:24:19;6.20;99.90
42019;DHT22;27703;51.980;5.848;2024-01-06T02:26:44;6.10;99.90
42019;DHT22;27703;51.980;5.848;2024-01-06T02:29:10;6.10;99.90
42019;DHT22;27703;51.980;5.848;2024-01-06T02:31:35;6.10;99.90
42019;DHT22;27703;51.980;5.848;2024-01-06T02:34:01;6.10;99.90
42019;DHT22;27703;51.980;5.848;2024-01-06T02:36:26;6.10;99.90
42019;DHT22;27703;51.980;5.848;2024-01-06T02:38:52;6.10;99.90
42019;DHT22;27703;51.980;5.848;2024-01-06T02:41:18;6.10;99.90
42019;DHT22;27703;51.980;5.848;2024-01-06T02:43:43;6.10;99.90
42019;DHT22;27703;51.980;5.848;2024-01-06T02:46:09;6.00;99.90
42019;DHT22;27703;51.980;5.848;2024-01-06T02:48:34;6.00;99.90
42019;DHT22;27703;51.980;5.848;2024-01-06T02:51:00;6.00;99.90
42019;DHT22;27703;51.980;5.848;2024-01-06T02:53:25;6.00;99.90
42019;DHT22;27703;51.980;5.848;2024-01-06T02:55:51;5.90;99.90
42019;DHT22;27703;51.980;5.848;2024-01-06T02:58:16;5.90;99.90
42019;DHT22;27703;51.980;5.848;2024-01-06T03:00:42;5.90;99.90
42019;DHT22;27703;51.980;5.848;2024-01-06T03:03:07;5.90;99.90
42019;DHT22;27703;51.980;5.848;2024-01-06T03:05:33;5.90;99.90
42019;DHT22;27703;51.980;5.848;2024-01-06T03:07:58;5.90;99.90
42019;DHT22;27703;51.980;5.848;2024-01-06T03:10:24;5.90;99.90
42019;DHT22;27703;51.980;5.848;2024-01-06T03:12:49;5.90;99.90
42019;DHT22;27703;51.980;5.848;2024-01-06T03:15:15;5.90;99.90
42019;DHT22;27703;51.980;5.848;2024-01-06T03:17:41;5.90;99.90
42019;DHT22;27703;51.980;5.848;2024-01-06T03:20:06;5.90;99.90
42019;DHT22;27703;51.980;5.848;2024-01-06T03:22:33;5.90;99.90
42019;DHT22;27703;51.980;5.848;2024-01-06T03:24:58;5.90;99.90
42019;DHT22;27703;51.980;5.848;2024-01-06T03:27:24;5.90;99.90
42019;DHT22;27703;51.980;5.848;2024-01-06T03:29:50;5.90;99.90
42019;DHT22;27703;51.980;5.848;2024-01-06T03:32:15;5.90;99.90
42019;DHT22;27703;51.980;5.848;2024-01-06T03:34:41;5.90;99.90
42019;DHT22;27703;51.980;5.848;2024-01-06T03:37:07;5.90;99.90
42019;DHT22;27703;51.980;5.848;2024-01-06T03:39:32;5.90;99.90
42019;DHT22;27703;51.980;5.848;2024-01-06T03:41:59;5.90;99.90
42019;DHT22;27703;51.980;5.848;2024-01-06T03:44:24;5.90;99.90
42019;DHT22;27703;51.980;5.848;2024-01-06T03:46:56;5.90;99.90
42019;DHT22;27703;51.980;5.848;2024-01-06T03:49:21;5.90;99.90
42019;DHT22;27703;51.980;5.848;2024-01-06T03:51:47;5.90;99.90
42019;DHT22;27703;51.980;5.848;2024-01-06T03:54:12;5.90;99.90
42019;DHT22;27703;51.980;5.848;2024-01-06T03:56:38;5.90;99.90
42019;DHT22;27703;51.980;5.848;2024-01-06T03:59:03;5.80;99.90
42019;DHT22;27703;51.980;5.848;2024-01-06T04:01:29;5.90;99.90
42019;DHT22;27703;51.980;5.848;2024-01-06T04:03:56;5.80;99.90
42019;DHT22;27703;51.980;5.848;2024-01-06T04:06:22;5.90;99.90
42019;DHT22;27703;51.980;5.848;2024-01-06T04:08:47;5.90;99.90
42019;DHT22;27703;51.980;5.848;2024-01-06T04:11:13;5.80;99.90
42019;DHT22;27703;51.980;5.848;2024-01-06T04:13:38;5.80;99.90
42019;DHT22;27703;51.980;5.848;2024-01-06T04:16:04;5.80;99.90
42019;DHT22;27703;51.980;5.848;2024-01-06T04:18:30;5.80;99.90
42019;DHT22;27703;51.980;5.848;2024-01-06T04:20:56;5.70;99.90
42019;DHT22;27703;51.980;5.848;2024-01-06T04:23:21;5.80;99.90
42019;DHT22;27703;51.980;5.848;2024-01-06T04:25:47;5.80;99.90
42019;DHT22;27703;51.980;5.848;2024-01-06T04:28:12;5.80;99.90
42019;DHT22;27703;51.980;5.848;2024-01-06T04:30:38;5.80;99.90
42019;DHT22;27703;51.980;5.848;2024-01-06T04:33:03;5.70;99.90
42019;DHT22;27703;51.980;5.848;2024-01-06T04:35:29;5.80;99.90
42019;DHT22;27703;51.980;5.848;2024-01-06T04:37:54;5.70;99.90
42019;DHT22;27703;51.980;5.848;2024-01-06T04:40:20;5.70;99.90
42019;DHT22;27703;51.980;5.848;2024-01-06T04:42:46;5.70;99.90
42019;DHT22;27703;51.980;5.848;2024-01-06T04:45:11;5.60;99.90
42019;DHT22;27703;51.980;5.848;2024-01-06T04:47:37;5.60;99.90
42019;DHT22;27703;51.980;5.848;2024-01-06T04:50:03;5.60;99.90
42019;DHT22;27703;51.980;5.848;2024-01-06T04:52:28;5.60;99.90
42019;DHT22;27703;51.980;5.848;2024-01-06T04:54:55;5.60;99.90
42019;DHT22;27703;51.980;5.848;2024-01-06T04:57:20;5.60;99.90
42019;DHT22;27703;51.980;5.848;2024-01-06T04:59:46;5.60;99.90
42019;DHT22;27703;51.980;5.848;2024-01-06T05:02:11;5.50;99.90
42019;DHT22;27703;51.980;5.848;2024-01-06T05:04:37;5.50;99.90
42019;DHT22;27703;51.980;5.848;2024-01-06T05:07:02;5.50;99.90
42019;DHT22;27703;51.980;5.848;2024-01-06T05:09:28;5.50;99.90
42019;DHT22;27703;51.980;5.848;2024-01-06T05:11:54;5.50;99.90
42019;DHT22;27703;51.980;5.848;2024-01-06T05:14:19;5.50;99.90
42019;DHT22;27703;51.980;5.848;2024-01-06T05:16:45;5.50;99.90
42019;DHT22;27703;51.980;5.848;2024-01-06T05:19:11;5.40;99.90
42019;DHT22;27703;51.980;5.848;2024-01-06T05:21:37;5.40;99.90
42019;DHT22;27703;51.980;5.848;2024-01-06T05:24:02;5.40;99.90
42019;DHT22;27703;51.980;5.848;2024-01-06T05:26:28;5.40;99.90
42019;DHT22;27703;51.980;5.848;2024-01-06T05:28:54;5.40;99.90
42019;DHT22;27703;51.980;5.848;2024-01-06T05:31:19;5.30;99.90
42019;DHT22;27703;51.980;5.848;2024-01-06T05:33:45;5.30;99.90
42019;DHT22;27703;51.980;5.848;2024-01-06T05:36:11;5.30;99.90
42019;DHT22;27703;51.980;5.848;2024-01-06T05:38:36;5.30;99.90
42019;DHT22;27703;51.980;5.848;2024-01-06T05:41:02;5.20;99.90
42019;DHT22;27703;51.980;5.848;2024-01-06T05:43:28;5.20;99.90
42019;DHT22;27703;51.980;5.848;2024-01-06T05:45:53;5.20;99.90
42019;DHT22;27703;51.980;5.848;2024-01-06T05:48:19;5.20;99.90
42019;DHT22;27703;51.980;5.848;2024-01-06T05:50:44;5.10;99.90
42019;DHT22;27703;51.980;5.848;2024-01-06T05:53:10;5.10;99.90
42019;DHT22;27703;51.980;5.848;2024-01-06T05:55:36;5.10;99.90
42019;DHT22;27703;51.980;5.848;2024-01-06T05:58:01;5.10;99.90
42019;DHT22;27703;51.980;5.848;2024-01-06T06:00:27;5.10;99.90
42019;DHT22;27703;51.980;5.848;2024-01-06T06:02:52;5.10;99.90
42019;DHT22;27703;51.980;5.848;2024-01-06T06:05:18;5.10;99.90
42019;DHT22;27703;51.980;5.848;2024-01-06T06:07:44;5.10;99.90
42019;DHT22;27703;51.980;5.848;2024-01-06T06:10:10;5.10;99.90
42019;DHT22;27703;51.980;5.848;2024-01-06T06:12:36;5.10;99.90
42019;DHT22;27703;51.980;5.848;2024-01-06T06:15:02;5.10;99.90
42019;DHT22;27703;51.980;5.848;2024-01-06T06:17:30;5.10;99.90
42019;DHT22;27703;51.980;5.848;2024-01-06T06:19:56;5.10;99.90
42019;DHT22;27703;51.980;5.848;2024-01-06T06:22:22;5.10;99.90
42019;DHT22;27703;51.980;5.848;2024-01-06T06:24:48;5.00;99.90
42019;DHT22;27703;51.980;5.848;2024-01-06T06:27:14;5.00;99.90
42019;DHT22;27703;51.980;5.848;2024-01-06T06:29:39;5.00;99.90
42019;DHT22;27703;51.980;5.848;2024-01-06T06:32:05;5.00;99.90
42019;DHT22;27703;51.980;5.848;2024-01-06T06:34:31;5.00;99.90
42019;DHT22;27703;51.980;5.848;2024-01-06T06:36:56;5.00;99.90
42019;DHT22;27703;51.980;5.848;2024-01-06T06:39:22;5.00;99.90
42019;DHT22;27703;51.980;5.848;2024-01-06T06:41:47;5.00;99.90
42019;DHT22;27703;51.980;5.848;2024-01-06T06:44:13;4.90;99.90
42019;DHT22;27703;51.980;5.848;2024-01-06T06:46:38;4.90;99.90
42019;DHT22;27703;51.980;5.848;2024-01-06T06:49:04;4.90;99.90
42019;DHT22;27703;51.980;5.848;2024-01-06T06:51:30;4.90;99.90
42019;DHT22;27703;51.980;5.848;2024-01-06T06:53:55;4.90;99.90
42019;DHT22;27703;51.980;5.848;2024-01-06T06:56:22;4.80;99.90
42019;DHT22;27703;51.980;5.848;2024-01-06T06:58:47;4.80;99.90
42019;DHT22;27703;51.980;5.848;2024-01-06T07:01:16;4.80;99.90
42019;DHT22;27703;51.980;5.848;2024-01-06T07:03:42;4.80;99.90
42019;DHT22;27703;51.980;5.848;2024-01-06T07:06:08;4.80;99.90
42019;DHT22;27703;51.980;5.848;2024-01-06T07:08:33;4.80;99.90
42019;DHT22;27703;51.980;5.848;2024-01-06T07:10:59;4.80;99.90
42019;DHT22;27703;51.980;5.848;2024-01-06T07:13:25;4.80;99.90
42019;DHT22;27703;51.980;5.848;2024-01-06T07:15:51;4.70;99.90
42019;DHT22;27703;51.980;5.848;2024-01-06T07:18:17;4.70;99.90
42019;DHT22;27703;51.980;5.848;2024-01-06T07:20:44;4.80;99.90
42019;DHT22;27703;51.980;5.848;2024-01-06T07:23:10;4.80;99.90
42019;DHT22;27703;51.980;5.848;2024-01-06T07:25:35;4.70;99.90
42019;DHT22;27703;51.980;5.848;2024-01-06T07:28:01;4.70;99.90
42019;DHT22;27703;51.980;5.848;2024-01-06T07:30:27;4.70;99.90
42019;DHT22;27703;51.980;5.848;2024-01-06T07:32:53;4.70;99.90
42019;DHT22;27703;51.980;5.848;2024-01-06T07:35:18;4.70;99.90
42019;DHT22;27703;51.980;5.848;2024-01-06T07:37:44;4.70;99.90
42019;DHT22;27703;51.980;5.848;2024-01-06T07:40:10;4.70;99.90
42019;DHT22;27703;51.980;5.848;2024-01-06T07:42:35;4.70;99.90
42019;DHT22;27703;51.980;5.848;2024-01-06T07:45:01;4.70;99.90
42019;DHT22;27703;51.980;5.848;2024-01-06T07:47:27;4.60;99.90
42019;DHT22;27703;51.980;5.848;2024-01-06T07:49:53;4.60;99.90
42019;DHT22;27703;51.980;5.848;2024-01-06T07:52:19;4.60;99.90
42019;DHT22;27703;51.980;5.848;2024-01-06T07:54:45;4.60;99.90
42019;DHT22;27703;51.980;5.848;2024-01-06T07:57:10;4.70;99.90
42019;DHT22;27703;51.980;5.848;2024-01-06T07:59:37;4.60;99.90
42019;DHT22;27703;51.980;5.848;2024-01-06T08:02:02;4.70;99.90
42019;DHT22;27703;51.980;5.848;2024-01-06T08:04:28;4.70;99.90
42019;DHT22;27703;51.980;5.848;2024-01-06T08:06:53;4.60;99.90
42019;DHT22;27703;51.980;5.848;2024-01-06T08:09:19;4.60;99.90
42019;DHT22;27703;51.980;5.848;2024-01-06T08:11:45;4.60;99.90
42019;DHT22;27703;51.980;5.848;2024-01-06T08:14:13;4.60;99.90
42019;DHT22;27703;51.980;5.848;2024-01-06T08:16:39;4.70;99.90
42019;DHT22;27703;51.980;5.848;2024-01-06T08:19:04;4.60;99.90
42019;DHT22;27703;51.980;5.848;2024-01-06T08:21:30;4.70;99.90
42019;DHT22;27703;51.980;5.848;2024-01-06T08:23:55;4.70;99.90
42019;DHT22;27703;51.980;5.848;2024-01-06T08:26:21;4.70;99.90
42019;DHT22;27703;51.980;5.848;2024-01-06T08:28:47;4.70;99.90
42019;DHT22;27703;51.980;5.848;2024-01-06T08:31:12;4.60;99.90
42019;DHT22;27703;51.980;5.848;2024-01-06T08:33:38;4.60;99.90
42019;DHT22;27703;51.980;5.848;2024-01-06T08:36:04;4.60;99.90
42019;DHT22;27703;51.980;5.848;2024-01-06T08:38:30;4.60;99.90
42019;DHT22;27703;51.980;5.848;2024-01-06T08:40:55;4.60;99.90
42019;DHT22;27703;51.980;5.848;2024-01-06T08:43:21;4.60;99.90
42019;DHT22;27703;51.980;5.848;2024-01-06T08:45:47;4.70;99.90
42019;DHT22;27703;51.980;5.848;2024-01-06T08:48:13;4.70;99.90
42019;DHT22;27703;51.980;5.848;2024-01-06T08:50:40;4.70;99.90
42019;DHT22;27703;51.980;5.848;2024-01-06T08:53:05;4.70;99.90
42019;DHT22;27703;51.980;5.848;2024-01-06T08:55:31;4.70;99.90
42019;DHT22;27703;51.980;5.848;2024-01-06T08:57:56;4.70;99.90
42019;DHT22;27703;51.980;5.848;2024-01-06T09:00:22;4.70;99.90
42019;DHT22;27703;51.980;5.848;2024-01-06T09:02:47;4.70;99.90
42019;DHT22;27703;51.980;5.848;2024-01-06T09:05:14;4.60;99.90
42019;DHT22;27703;51.980;5.848;2024-01-06T09:07:39;4.70;99.90
42019;DHT22;27703;51.980;5.848;2024-01-06T09:10:05;4.70;99.90
42019;DHT22;27703;51.980;5.848;2024-01-06T09:12:31;4.70;99.90
42019;DHT22;27703;51.980;5.848;2024-01-06T09:14:56;4.70;99.90
42019;DHT22;27703;51.980;5.848;2024-01-06T09:17:23;4.70;99.90
42019;DHT22;27703;51.980;5.848;2024-01-06T09:19:48;4.70;99.90
42019;DHT22;27703;51.980;5.848;2024-01-06T09:22:14;4.70;99.90
42019;DHT22;27703;51.980;5.848;2024-01-06T09:24:40;4.70;99.90
42019;DHT22;27703;51.980;5.848;2024-01-06T09:27:05;4.70;99.90
42019;DHT22;27703;51.980;5.848;2024-01-06T09:29:31;4.70;99.90
42019;DHT22;27703;51.980;5.848;2024-01-06T09:31:56;4.70;99.90
42019;DHT22;27703;51.980;5.848;2024-01-06T09:34:22;4.70;99.90
42019;DHT22;27703;51.980;5.848;2024-01-06T09:36:47;4.70;99.90
42019;DHT22;27703;51.980;5.848;2024-01-06T09:39:13;4.60;99.90
42019;DHT22;27703;51.980;5.848;2024-01-06T09:41:38;4.60;99.90
42019;DHT22;27703;51.980;5.848;2024-01-06T09:44:04;4.60;99.90
42019;DHT22;27703;51.980;5.848;2024-01-06T09:46:30;4.70;99.90
42019;DHT22;27703;51.980;5.848;2024-01-06T09:48:57;4.70;99.90
42019;DHT22;27703;51.980;5.848;2024-01-06T09:51:24;4.60;99.90
42019;DHT22;27703;51.980;5.848;2024-01-06T09:53:56;4.60;99.90
42019;DHT22;27703;51.980;5.848;2024-01-06T09:56:24;4.70;99.90
42019;DHT22;27703;51.980;5.848;2024-01-06T09:58:50;4.60;99.90
42019;DHT22;27703;51.980;5.848;2024-01-06T10:01:17;4.60;99.90
42019;DHT22;27703;51.980;5.848;2024-01-06T10:03:43;4.60;99.90
42019;DHT22;27703;51.980;5.848;2024-01-06T10:06:11;4.60;99.90
42019;DHT22;27703;51.980;5.848;2024-01-06T10:08:36;4.60;99.90
42019;DHT22;27703;51.980;5.848;2024-01-06T10:11:06;4.60;99.90
42019;DHT22;27703;51.980;5.848;2024-01-06T10:13:32;4.60;99.90
42019;DHT22;27703;51.980;5.848;2024-01-06T10:15:57;4.70;99.90
42019;DHT22;27703;51.980;5.848;2024-01-06T10:18:25;4.70;99.90
42019;DHT22;27703;51.980;5.848;2024-01-06T10:20:52;4.70;99.90
42019;DHT22;27703;51.980;5.848;2024-01-06T10:23:19;4.70;99.90
42019;DHT22;27703;51.980;5.848;2024-01-06T10:25:44;4.70;99.90
42019;DHT22;27703;51.980;5.848;2024-01-06T10:28:13;4.70;99.90
42019;DHT22;27703;51.980;5.848;2024-01-06T10:30:41;4.70;99.90
42019;DHT22;27703;51.980;5.848;2024-01-06T10:33:09;4.70;99.90
42019;DHT22;27703;51.980;5.848;2024-01-06T10:35:35;4.70;99.90
42019;DHT22;27703;51.980;5.848;2024-01-06T10:38:02;4.70;99.90
42019;DHT22;27703;51.980;5.848;2024-01-06T10:40:28;4.70;99.90
42019;DHT22;27703;51.980;5.848;2024-01-06T10:42:55;4.70;99.90
42019;DHT22;27703;51.980;5.848;2024-01-06T10:45:23;4.70;99.90
42019;DHT22;27703;51.980;5.848;2024-01-06T10:47:49;4.70;99.90
42019;DHT22;27703;51.980;5.848;2024-01-06T10:50:17;4.70;99.90
42019;DHT22;27703;51.980;5.848;2024-01-06T10:52:43;4.70;99.90
42019;DHT22;27703;51.980;5.848;2024-01-06T10:55:09;4.60;99.90
42019;DHT22;27703;51.980;5.848;2024-01-06T10:57:37;4.60;99.90
42019;DHT22;27703;51.980;5.848;2024-01-06T11:00:06;4.60;99.90
42019;DHT22;27703;51.980;5.848;2024-01-06T11:02:33;4.60;99.90
42019;DHT22;27703;51.980;5.848;2024-01-06T11:04:59;4.60;99.90
42019;DHT22;27703;51.980;5.848;2024-01-06T11:07:25;4.60;99.90
42019;DHT22;27703;51.980;5.848;2024-01-06T11:09:57;4.60;99.90
42019;DHT22;27703;51.980;5.848;2024-01-06T11:12:27;4.60;99.90
42019;DHT22;27703;51.980;5.848;2024-01-06T11:14:53;4.70;99.90
42019;DHT22;27703;51.980;5.848;2024-01-06T11:17:51;4.70;99.90
42019;DHT22;27703;51.980;5.848;2024-01-06T11:20:21;4.60;99.90
42019;DHT22;27703;51.980;5.848;2024-01-06T11:22:47;4.60;99.90
42019;DHT22;27703;51.980;5.848;2024-01-06T11:25:20;4.60;99.90
42019;DHT22;27703;51.980;5.848;2024-01-06T11:27:48;4.60;99.90
42019;DHT22;27703;51.980;5.848;2024-01-06T11:30:24;4.60;99.90
42019;DHT22;27703;51.980;5.848;2024-01-06T11:32:51;4.60;99.90
42019;DHT22;27703;51.980;5.848;2024-01-06T11:35:19;4.60;99.90
42019;DHT22;27703;51.980;5.848;2024-01-06T11:43:10;4.60;99.90
42019;DHT22;27703;51.980;5.848;2024-01-06T11:45:37;4.50;99.90
42019;DHT22;27703;51.980;5.848;2024-01-06T11:48:04;4.50;99.90
42019;DHT22;27703;51.980;5.848;2024-01-06T11:50:32;4.50;99.90
42019;DHT22;27703;51.980;5.848;2024-01-06T11:52:59;4.50;99.90
42019;DHT22;27703;51.980;5.848;2024-01-06T11:55:27;4.50;99.90
42019;DHT22;27703;51.980;5.848;2024-01-06T11:58:00;4.60;99.90
42019;DHT22;27703;51.980;5.848;2024-01-06T12:00:31;4.60;99.90
42019;DHT22;27703;51.980;5.848;2024-01-06T12:03:00;4.60;99.90
42019;DHT22;27703;51.980;5.848;2024-01-06T12:05:27;4.50;99.90
42019;DHT22;27703;51.980;5.848;2024-01-06T12:08:00;4.60;99.90
42019;DHT22;27703;51.980;5.848;2024-01-06T12:10:27;4.60;99.90
42019;DHT22;27703;51.980;5.848;2024-01-06T12:13:00;4.60;99.90
42019;DHT22;27703;51.980;5.848;2024-01-06T12:15:31;4.60;99.90
42019;DHT22;27703;51.980;5.848;2024-01-06T12:17:57;4.50;99.90
42019;DHT22;27703;51.980;5.848;2024-01-06T12:20:24;4.50;99.90
42019;DHT22;27703;51.980;5.848;2024-01-06T12:22:53;4.50;99.90
42019;DHT22;27703;51.980;5.848;2024-01-06T12:25:23;4.50;99.90
42019;DHT22;27703;51.980;5.848;2024-01-06T12:27:50;4.50;99.90
42019;DHT22;27703;51.980;5.848;2024-01-06T12:30:20;4.50;99.90
42019;DHT22;27703;51.980;5.848;2024-01-06T12:32:47;4.50;99.90
42019;DHT22;27703;51.980;5.848;2024-01-06T12:35:15;4.50;99.90
42019;DHT22;27703;51.980;5.848;2024-01-06T12:37:43;4.50;99.90
42019;DHT22;27703;51.980;5.848;2024-01-06T12:40:11;4.50;99.90
42019;DHT22;27703;51.980;5.848;2024-01-06T12:42:38;4.40;99.90
42019;DHT22;27703;51.980;5.848;2024-01-06T12:45:05;4.40;99.90
42019;DHT22;27703;51.980;5.848;2024-01-06T12:47:32;4.40;99.90
42019;DHT22;27703;51.980;5.848;2024-01-06T12:49:57;4.50;99.90
42019;DHT22;27703;51.980;5.848;2024-01-06T12:52:23;4.50;99.90
42019;DHT22;27703;51.980;5.848;2024-01-06T12:54:49;4.50;99.90
42019;DHT22;27703;51.980;5.848;2024-01-06T12:57:15;4.40;99.90
42019;DHT22;27703;51.980;5.848;2024-01-06T12:59:40;4.40;99.90
42019;DHT22;27703;51.980;5.848;2024-01-06T13:02:06;4.40;99.90
42019;DHT22;27703;51.980;5.848;2024-01-06T13:04:32;4.40;99.90
42019;DHT22;27703;51.980;5.848;2024-01-06T13:06:57;4.40;99.90
42019;DHT22;27703;51.980;5.848;2024-01-06T13:09:23;4.40;99.90
42019;DHT22;27703;51.980;5.848;2024-01-06T13:11:49;4.40;99.90
42019;DHT22;27703;51.980;5.848;2024-01-06T13:14:17;4.40;99.90
42019;DHT22;27703;51.980;5.848;2024-01-06T13:16:43;4.40;99.90
42019;DHT22;27703;51.980;5.848;2024-01-06T13:19:08;4.40;99.90
42019;DHT22;27703;51.980;5.848;2024-01-06T13:21:34;4.40;99.90
42019;DHT22;27703;51.980;5.848;2024-01-06T13:24:01;4.30;99.90
42019;DHT22;27703;51.980;5.848;2024-01-06T13:26:28;4.30;99.90
42019;DHT22;27703;51.980;5.848;2024-01-06T13:28:54;4.30;99.90
42019;DHT22;27703;51.980;5.848;2024-01-06T13:31:19;4.30;99.90
42019;DHT22;27703;51.980;5.848;2024-01-06T13:33:45;4.40;99.90
42019;DHT22;27703;51.980;5.848;2024-01-06T13:36:11;4.40;99.90
42019;DHT22;27703;51.980;5.848;2024-01-06T13:38:37;4.40;99.90
42019;DHT22;27703;51.980;5.848;2024-01-06T13:41:02;4.40;99.90
42019;DHT22;27703;51.980;5.848;2024-01-06T13:43:28;4.40;99.90
42019;DHT22;27703;51.980;5.848;2024-01-06T13:45:54;4.40;99.90
42019;DHT22;27703;51.980;5.848;2024-01-06T13:48:20;4.40;99.90
42019;DHT22;27703;51.980;5.848;2024-01-06T13:50:46;4.40;99.90
42019;DHT22;27703;51.980;5.848;2024-01-06T13:53:11;4.50;99.90
42019;DHT22;27703;51.980;5.848;2024-01-06T13:55:38;4.50;99.90
42019;DHT22;27703;51.980;5.848;2024-01-06T13:58:03;4.50;99.90
42019;DHT22;27703;51.980;5.848;2024-01-06T14:00:29;4.50;99.90
42019;DHT22;27703;51.980;5.848;2024-01-06T14:02:55;4.50;99.90
42019;DHT22;27703;51.980;5.848;2024-01-06T14:05:22;4.50;99.90
42019;DHT22;27703;51.980;5.848;2024-01-06T14:07:47;4.40;99.90
42019;DHT22;27703;51.980;5.848;2024-01-06T14:10:15;4.50;99.90
42019;DHT22;27703;51.980;5.848;2024-01-06T14:12:41;4.40;99.90
42019;DHT22;27703;51.980;5.848;2024-01-06T14:15:08;4.40;99.90
42019;DHT22;27703;51.980;5.848;2024-01-06T14:17:34;4.40;99.90
42019;DHT22;27703;51.980;5.848;2024-01-06T14:19:59;4.40;99.90
42019;DHT22;27703;51.980;5.848;2024-01-06T14:22:26;4.30;99.90
42019;DHT22;27703;51.980;5.848;2024-01-06T14:24:51;4.30;99.90
42019;DHT22;27703;51.980;5.848;2024-01-06T14:27:17;4.30;99.90
42019;DHT22;27703;51.980;5.848;2024-01-06T14:29:43;4.30;99.90
42019;DHT22;27703;51.980;5.848;2024-01-06T14:32:08;4.30;99.90
42019;DHT22;27703;51.980;5.848;2024-01-06T14:34:34;4.30;99.90
42019;DHT22;27703;51.980;5.848;2024-01-06T14:37:00;4.30;99.90
42019;DHT22;27703;51.980;5.848;2024-01-06T14:39:25;4.30;99.90
42019;DHT22;27703;51.980;5.848;2024-01-06T14:41:51;4.30;99.90
42019;DHT22;27703;51.980;5.848;2024-01-06T14:44:17;4.30;99.90
42019;DHT22;27703;51.980;5.848;2024-01-06T14:46:45;4.30;99.90
42019;DHT22;27703;51.980;5.848;2024-01-06T14:49:11;4.30;99.90
42019;DHT22;27703;51.980;5.848;2024-01-06T14:51:36;4.30;99.90
42019;DHT22;27703;51.980;5.848;2024-01-06T14:54:02;4.30;99.90
42019;DHT22;27703;51.980;5.848;2024-01-06T14:56:28;4.30;99.90
42019;DHT22;27703;51.980;5.848;2024-01-06T14:58:55;4.30;99.90
42019;DHT22;27703;51.980;5.848;2024-01-06T15:03:56;4.30;99.90
42019;DHT22;27703;51.980;5.848;2024-01-06T15:06:22;4.30;99.90
42019;DHT22;27703;51.980;5.848;2024-01-06T15:08:47;4.30;99.90
42019;DHT22;27703;51.980;5.848;2024-01-06T15:11:14;4.30;99.90
42019;DHT22;27703;51.980;5.848;2024-01-06T15:13:39;4.30;99.90
42019;DHT22;27703;51.980;5.848;2024-01-06T15:16:05;4.30;99.90
42019;DHT22;27703;51.980;5.848;2024-01-06T15:18:32;4.30;99.90
42019;DHT22;27703;51.980;5.848;2024-01-06T15:20:58;4.30;99.90
42019;DHT22;27703;51.980;5.848;2024-01-06T15:23:24;4.30;99.90
42019;DHT22;27703;51.980;5.848;2024-01-06T15:25:50;4.20;99.90
42019;DHT22;27703;51.980;5.848;2024-01-06T15:28:15;4.20;99.90
42019;DHT22;27703;51.980;5.848;2024-01-06T15:30:41;4.20;99.90
42019;DHT22;27703;51.980;5.848;2024-01-06T15:33:07;4.20;99.90
42019;DHT22;27703;51.980;5.848;2024-01-06T15:35:32;4.20;99.90
42019;DHT22;27703;51.980;5.848;2024-01-06T15:37:58;4.20;99.90
42019;DHT22;27703;51.980;5.848;2024-01-06T15:40:24;4.20;99.90
42019;DHT22;27703;51.980;5.848;2024-01-06T15:42:49;4.20;99.90
42019;DHT22;27703;51.980;5.848;2024-01-06T15:45:15;4.20;99.90